BIELK01 EPDE-EPDE
Flight info
| Callsign | BIELK01 |
|---|---|
| Flight time | 0h 35m |
| Altitude | 2500 |
| Route | STAY01/0100 |
| Aircraft | M346/M-G/LB1 |
Departure
| Time | 2026-05-04 15:15 |
|---|---|
| Airport | Deblin Military Air Base (EPDE) |
Arrival
| Time | 2026-05-04 15:50 |
|---|---|
| Airport | Deblin Military Air Base (EPDE) |
| Time | Latitude | Longitude | Altitude | Speed | Heading |
|---|---|---|---|---|---|
| 2026-05-04 15:07 | 51.54597 | 21.89610 | 380 ft | 0 kts | 210° |
| 2026-05-04 15:09 | 51.54593 | 21.89607 | 385 ft | 4 kts | 201° |
| 2026-05-04 15:10 | 51.54553 | 21.89670 | 384 ft | 6 kts | 120° |
| 2026-05-04 15:10 | 51.54524 | 21.89749 | 382 ft | 10 kts | 120° |
| 2026-05-04 15:10 | 51.54598 | 21.89926 | 383 ft | 11 kts | 120° |
| 2026-05-04 15:11 | 51.54560 | 21.90028 | 382 ft | 9 kts | 121° |
| 2026-05-04 15:11 | 51.54531 | 21.90104 | 382 ft | 7 kts | 120° |
| 2026-05-04 15:11 | 51.54512 | 21.90156 | 382 ft | 4 kts | 122° |
| 2026-05-04 15:11 | 51.54490 | 21.90215 | 382 ft | 6 kts | 122° |
| 2026-05-04 15:12 | 51.54470 | 21.90269 | 382 ft | 9 kts | 121° |
| 2026-05-04 15:12 | 51.54433 | 21.90370 | 382 ft | 10 kts | 116° |
| 2026-05-04 15:12 | 51.54441 | 21.90448 | 382 ft | 5 kts | 45° |
| 2026-05-04 15:12 | 51.54459 | 21.90470 | 382 ft | 1 kts | 32° |
| 2026-05-04 15:13 | 51.54487 | 21.90498 | 382 ft | 7 kts | 30° |
| 2026-05-04 15:13 | 51.54528 | 21.90539 | 382 ft | 6 kts | 33° |
| 2026-05-04 15:13 | 51.54560 | 21.90568 | 381 ft | 5 kts | 19° |
| 2026-05-04 15:13 | 51.54591 | 21.90571 | 380 ft | 3 kts | 354° |
| 2026-05-04 15:14 | 51.54613 | 21.90546 | 379 ft | 5 kts | 305° |
| 2026-05-04 15:14 | 51.54620 | 21.90531 | 381 ft | 0 kts | 301° |
| 2026-05-04 15:14 | 51.54802 | 21.90040 | 386 ft | 138 kts | 300° |
| 2026-05-04 15:14 | 51.55419 | 21.88456 | 735 ft | 185 kts | 302° |
| 2026-05-04 15:15 | 51.56152 | 21.86678 | 1297 ft | 196 kts | 303° |
| 2026-05-04 15:15 | 51.57329 | 21.85645 | 2020 ft | 224 kts | 11° |
| 2026-05-04 15:15 | 51.58681 | 21.86843 | 2299 ft | 222 kts | 32° |
| 2026-05-04 15:16 | 51.60345 | 21.90380 | 2199 ft | 208 kts | 131° |
| 2026-05-04 15:16 | 51.59608 | 21.92358 | 2297 ft | 218 kts | 121° |
| 2026-05-04 15:16 | 51.57890 | 21.97194 | 2287 ft | 256 kts | 123° |
| 2026-05-04 15:17 | 51.57079 | 21.99501 | 2200 ft | 221 kts | 122° |
| 2026-05-04 15:17 | 51.54833 | 22.00074 | 1804 ft | 181 kts | 212° |
| 2026-05-04 15:17 | 51.53794 | 21.99074 | 1618 ft | 171 kts | 212° |
| 2026-05-04 15:18 | 51.52877 | 21.98142 | 1510 ft | 140 kts | 214° |
| 2026-05-04 15:18 | 51.52283 | 21.97025 | 1177 ft | 130 kts | 275° |
| 2026-05-04 15:18 | 51.52700 | 21.95717 | 1015 ft | 143 kts | 300° |
| 2026-05-04 15:19 | 51.53723 | 21.92931 | 805 ft | 161 kts | 302° |
| 2026-05-04 15:19 | 51.54251 | 21.91525 | 545 ft | 129 kts | 302° |
| 2026-05-04 15:19 | 51.55144 | 21.89128 | 648 ft | 157 kts | 300° |
| 2026-05-04 15:20 | 51.55752 | 21.87525 | 1092 ft | 175 kts | 300° |
| 2026-05-04 15:20 | 51.56419 | 21.85862 | 1514 ft | 177 kts | 301° |
| 2026-05-04 15:20 | 51.57472 | 21.84968 | 2042 ft | 205 kts | 18° |
| 2026-05-04 15:20 | 51.58674 | 21.86225 | 2132 ft | 212 kts | 32° |
| 2026-05-04 15:21 | 51.59875 | 21.87605 | 2362 ft | 210 kts | 31° |
| 2026-05-04 15:21 | 51.60579 | 21.89648 | 2331 ft | 227 kts | 103° |
| 2026-05-04 15:21 | 51.59087 | 21.94130 | 2372 ft | 230 kts | 122° |
| 2026-05-04 15:22 | 51.58355 | 21.96277 | 2336 ft | 205 kts | 122° |
| 2026-05-04 15:22 | 51.57735 | 21.98162 | 2262 ft | 180 kts | 122° |
| 2026-05-04 15:22 | 51.56086 | 21.99963 | 2142 ft | 163 kts | 212° |
| 2026-05-04 15:23 | 51.55169 | 21.99168 | 2040 ft | 136 kts | 212° |
| 2026-05-04 15:23 | 51.54280 | 21.98369 | 1893 ft | 157 kts | 212° |
| 2026-05-04 15:23 | 51.53340 | 21.97504 | 1718 ft | 141 kts | 215° |
| 2026-05-04 15:23 | 51.52837 | 21.96284 | 1269 ft | 137 kts | 260° |
| 2026-05-04 15:24 | 51.53477 | 21.93576 | 845 ft | 137 kts | 298° |
| 2026-05-04 15:24 | 51.54364 | 21.91239 | 493 ft | 112 kts | 296° |
| 2026-05-04 15:25 | 51.54727 | 21.90245 | 382 ft | 106 kts | 301° |
| 2026-05-04 15:25 | 51.55297 | 21.88736 | 707 ft | 171 kts | 299° |
| 2026-05-04 15:25 | 51.55887 | 21.87249 | 1099 ft | 145 kts | 300° |
| 2026-05-04 15:26 | 51.57497 | 21.85039 | 2125 ft | 202 kts | 32° |
| 2026-05-04 15:26 | 51.58713 | 21.86488 | 2330 ft | 230 kts | 32° |
| 2026-05-04 15:26 | 51.60274 | 21.89865 | 2222 ft | 199 kts | 122° |
| 2026-05-04 15:27 | 51.59648 | 21.91640 | 2217 ft | 169 kts | 124° |
| 2026-05-04 15:27 | 51.58525 | 21.94924 | 2201 ft | 170 kts | 122° |
| 2026-05-04 15:28 | 51.57424 | 21.98375 | 2263 ft | 172 kts | 121° |
| 2026-05-04 15:28 | 51.56855 | 22.00096 | 2304 ft | 185 kts | 136° |
| 2026-05-04 15:28 | 51.54471 | 21.98828 | 1840 ft | 180 kts | 212° |
| 2026-05-04 15:29 | 51.53513 | 21.97923 | 1489 ft | 136 kts | 213° |
| 2026-05-04 15:30 | 51.53780 | 21.92798 | 784 ft | 137 kts | 297° |
| 2026-05-04 15:30 | 51.55151 | 21.89112 | 573 ft | 173 kts | 300° |
| 2026-05-04 15:31 | 51.56511 | 21.85781 | 1566 ft | 182 kts | 303° |
| 2026-05-04 15:31 | 51.57737 | 21.85348 | 1922 ft | 202 kts | 34° |
| 2026-05-04 15:32 | 51.60074 | 21.90079 | 2207 ft | 187 kts | 121° |
| 2026-05-04 15:32 | 51.58767 | 21.93974 | 2256 ft | 208 kts | 120° |
| 2026-05-04 15:33 | 51.57361 | 21.98317 | 2351 ft | 224 kts | 122° |
| 2026-05-04 15:34 | 51.54277 | 21.99443 | 2075 ft | 163 kts | 211° |
| 2026-05-04 15:34 | 51.53303 | 21.98547 | 1756 ft | 150 kts | 212° |
| 2026-05-04 15:34 | 51.52587 | 21.95941 | 1142 ft | 159 kts | 295° |
| 2026-05-04 15:35 | 51.53599 | 21.93295 | 812 ft | 139 kts | 297° |
| 2026-05-04 15:35 | 51.54080 | 21.92014 | 635 ft | 121 kts | 297° |
| 2026-05-04 15:35 | 51.54473 | 21.90936 | 440 ft | 106 kts | 297° |
| 2026-05-04 15:36 | 51.55499 | 21.88213 | 788 ft | 186 kts | 301° |
| 2026-05-04 15:36 | 51.55662 | 21.86383 | 1135 ft | 190 kts | 219° |
| 2026-05-04 15:36 | 51.54623 | 21.86851 | 1317 ft | 166 kts | 122° |
| 2026-05-04 15:37 | 51.54116 | 21.88394 | 1170 ft | 142 kts | 121° |
| 2026-05-04 15:37 | 51.53748 | 21.89683 | 1026 ft | 124 kts | 120° |
| 2026-05-04 15:37 | 51.53853 | 21.90969 | 894 ft | 125 kts | 18° |
| 2026-05-04 15:37 | 51.54588 | 21.90616 | 454 ft | 112 kts | 291° |
| 2026-05-04 15:38 | 51.54981 | 21.89566 | 464 ft | 131 kts | 299° |
| 2026-05-04 15:38 | 51.55550 | 21.87987 | 690 ft | 171 kts | 299° |
| 2026-05-04 15:38 | 51.55499 | 21.86289 | 919 ft | 178 kts | 204° |
| 2026-05-04 15:38 | 51.54623 | 21.87113 | 1079 ft | 144 kts | 123° |
| 2026-05-04 15:39 | 51.54081 | 21.88648 | 1165 ft | 153 kts | 120° |
| 2026-05-04 15:39 | 51.53699 | 21.90117 | 894 ft | 139 kts | 84° |
| 2026-05-04 15:39 | 51.54829 | 21.89970 | 383 ft | 109 kts | 301° |
| 2026-05-04 15:40 | 51.55334 | 21.88626 | 685 ft | 145 kts | 299° |
| 2026-05-04 15:40 | 51.55993 | 21.86870 | 1055 ft | 223 kts | 301° |
| 2026-05-04 15:40 | 51.56884 | 21.84647 | 1672 ft | 239 kts | 301° |
| 2026-05-04 15:40 | 51.57742 | 21.82452 | 2134 ft | 228 kts | 300° |
| 2026-05-04 15:41 | 51.58555 | 21.80392 | 2344 ft | 204 kts | 300° |
| 2026-05-04 15:41 | 51.59280 | 21.78585 | 2308 ft | 196 kts | 301° |
| 2026-05-04 15:41 | 51.60065 | 21.76622 | 2270 ft | 222 kts | 303° |
| 2026-05-04 15:41 | 51.61536 | 21.76341 | 2235 ft | 251 kts | 31° |
| 2026-05-04 15:42 | 51.62917 | 21.77755 | 2403 ft | 225 kts | 31° |
| 2026-05-04 15:42 | 51.64310 | 21.79187 | 2410 ft | 245 kts | 30° |
| 2026-05-04 15:42 | 51.65752 | 21.80759 | 2377 ft | 246 kts | 32° |
| 2026-05-04 15:42 | 51.67104 | 21.82255 | 2300 ft | 222 kts | 32° |
| 2026-05-04 15:43 | 51.67629 | 21.84534 | 1989 ft | 252 kts | 120° |
| 2026-05-04 15:43 | 51.66820 | 21.86831 | 2027 ft | 221 kts | 121° |
| 2026-05-04 15:43 | 51.66113 | 21.88913 | 2084 ft | 210 kts | 121° |
| 2026-05-04 15:43 | 51.65370 | 21.91053 | 2170 ft | 231 kts | 121° |
| 2026-05-04 15:44 | 51.64576 | 21.93370 | 2299 ft | 239 kts | 121° |
| 2026-05-04 15:44 | 51.63785 | 21.95674 | 2358 ft | 223 kts | 121° |
| 2026-05-04 15:44 | 51.63084 | 21.97770 | 2195 ft | 201 kts | 120° |
| 2026-05-04 15:44 | 51.62480 | 21.99625 | 2128 ft | 173 kts | 120° |
| 2026-05-04 15:45 | 51.61966 | 22.01231 | 2006 ft | 147 kts | 121° |
| 2026-05-04 15:45 | 51.61497 | 22.02700 | 1886 ft | 159 kts | 121° |
| 2026-05-04 15:45 | 51.60870 | 22.04553 | 1943 ft | 206 kts | 121° |
| 2026-05-04 15:45 | 51.60216 | 22.06472 | 2003 ft | 184 kts | 122° |
| 2026-05-04 15:46 | 51.59619 | 22.08256 | 2022 ft | 192 kts | 121° |
| 2026-05-04 15:46 | 51.58557 | 22.09712 | 1877 ft | 234 kts | 191° |
| 2026-05-04 15:46 | 51.57172 | 22.08464 | 1827 ft | 213 kts | 212° |
| 2026-05-04 15:46 | 51.56077 | 22.07426 | 1745 ft | 151 kts | 212° |
| 2026-05-04 15:47 | 51.55237 | 22.06650 | 1623 ft | 131 kts | 212° |
| 2026-05-04 15:47 | 51.54405 | 22.05867 | 1517 ft | 153 kts | 211° |
| 2026-05-04 15:47 | 51.53782 | 22.05277 | 1554 ft | 158 kts | 213° |
| 2026-05-04 15:47 | 51.52851 | 22.04401 | 1594 ft | 148 kts | 212° |
| 2026-05-04 15:48 | 51.52235 | 22.03084 | 1431 ft | 146 kts | 257° |
| 2026-05-04 15:48 | 51.51990 | 22.01625 | 1415 ft | 126 kts | 256° |
| 2026-05-04 15:48 | 51.51667 | 21.98693 | 1276 ft | 160 kts | 279° |
| 2026-05-04 15:49 | 51.52139 | 21.97160 | 1190 ft | 139 kts | 301° |
| 2026-05-04 15:49 | 51.52622 | 21.95904 | 1020 ft | 129 kts | 299° |
| 2026-05-04 15:49 | 51.53089 | 21.94670 | 898 ft | 125 kts | 298° |
| 2026-05-04 15:49 | 51.53544 | 21.93415 | 785 ft | 131 kts | 301° |
| 2026-05-04 15:50 | 51.54002 | 21.92175 | 640 ft | 129 kts | 301° |
| 2026-05-04 15:50 | 51.54464 | 21.90952 | 457 ft | 124 kts | 300° |
| 2026-05-04 15:50 | 51.54809 | 21.90030 | 383 ft | 51 kts | 301° |
| 2026-05-04 15:50 | 51.54889 | 21.89807 | 382 ft | 5 kts | 300° |
| 2026-05-04 15:51 | 51.54907 | 21.89747 | 382 ft | 6 kts | 281° |
| 2026-05-04 15:51 | 51.54900 | 21.89684 | 381 ft | 4 kts | 235° |
| 2026-05-04 15:51 | 51.54881 | 21.89658 | 382 ft | 3 kts | 212° |
| 2026-05-04 15:51 | 51.54860 | 21.89638 | 382 ft | 11 kts | 210° |
| 2026-05-04 15:52 | 51.54753 | 21.89544 | 382 ft | 11 kts | 179° |
| 2026-05-04 15:52 | 51.54656 | 21.89514 | 382 ft | 11 kts | 204° |
| 2026-05-04 15:52 | 51.54642 | 21.89502 | 382 ft | 0 kts | 210° |